Larry Tilley — WY2160 — position and weather

sailwx.info

Track history (hours):
 
Tides and Currents Weather Stations Pressure Air Temp Water Temp Dewpoint Dewpoint Depression Visibility Wind Speed Wind Dir Waves Ship Positions

Larry Tilley

Owner: SOUTHERN TOWING CO, MEMPHIS, TN. More information available from US FCC via Universal Licensing System and Coast Guard Vessel Documentation Center.

Last reported at 2015-May-03 16:24 UTC. Time now 2015-May-29 06:18 UTC.
Position N 30°44' W 091°33'.
Warning: this ship's position is 25 days out of date.

Length 40 m; draft 8.6 m.

Type: Towing. MMSI: 366919230.

Date/timePositionNaut miles runAvg speedWind from/ knotsBaromVisibWave heightAir tempDewpointWater temp
2015-May-03 16:24N 30°44' W 091°33'7 3.8
2015-May-03 14:33N 30°45' W 091°25'4 3.7
2015-May-03 13:34N 30°43' W 091°21'5 4.6
2015-May-03 12:33N 30°39' W 091°19'4 3.8
2015-May-03 11:33N 30°35' W 091°19'4 3.6
2015-May-03 10:33N 30°34' W 091°15'3 2.9
2015-May-03 09:33N 30°31' W 091°16'1 1.5
2015-May-03 08:33N 30°30' W 091°15'3 2.6
2015-May-03 07:33N 30°31' W 091°12'4 4.0
2015-May-03 06:33N 30°27' W 091°12'3 3.5
2015-May-03 05:33N 30°23' W 091°13'1 0.7
2015-May-03 04:33N 30°23' W 091°13'0 0.0
2015-May-03 03:32N 30°23' W 091°13'0 0.0
2015-May-03 02:33N 30°23' W 091°13'3 2.1
2015-May-03 01:21N 30°21' W 091°12'2 1.5
2015-May-03 00:03N 30°19' W 091°11'2 4.5
2015-May-02 23:33N 30°18' W 091°13'6 0.2
2015-May-01 12:16N 30°14' W 091°08'4 6.0
2015-May-01 11:33N 30°17' W 091°12'4 4.1
2015-May-01 10:33N 30°20' W 091°08'5 5.5
2015-May-01 09:33N 30°23' W 091°13'8 7.7
2015-May-01 08:33N 30°31' W 091°13'4 4.2
2015-May-01 07:33N 30°34' W 091°17'7 6.8
2015-May-01 06:33N 30°40' W 091°20'  
Track history (hours):
 
Tides and Currents Weather Stations Pressure Air Temp Water Temp Dewpoint Dewpoint Depression Visibility Wind Speed Wind Dir Waves Ship Positions

Larry Tilley

Owner: SOUTHERN TOWING CO, MEMPHIS, TN. More information available from US FCC via Universal Licensing System and Coast Guard Vessel Documentation Center.

Last reported at 2015-May-03 16:24 UTC. Time now 2015-May-29 06:18 UTC.
Position N 30°44' W 091°33'.
Warning: this ship's position is 25 days out of date.

Length 40 m; draft 8.6 m.

Type: Towing. MMSI: 366919230.

Date/timePositionNaut miles runAvg speedWind from/ knotsBaromVisibWave heightAir tempDewpointWater temp
2015-May-03 16:24N 30°44' W 091°33'7 3.8
2015-May-03 14:33N 30°45' W 091°25'4 3.7
2015-May-03 13:34N 30°43' W 091°21'5 4.6
2015-May-03 12:33N 30°39' W 091°19'4 3.8
2015-May-03 11:33N 30°35' W 091°19'4 3.6
2015-May-03 10:33N 30°34' W 091°15'3 2.9
2015-May-03 09:33N 30°31' W 091°16'1 1.5
2015-May-03 08:33N 30°30' W 091°15'3 2.6
2015-May-03 07:33N 30°31' W 091°12'4 4.0
2015-May-03 06:33N 30°27' W 091°12'3 3.5
2015-May-03 05:33N 30°23' W 091°13'1 0.7
2015-May-03 04:33N 30°23' W 091°13'0 0.0
2015-May-03 03:32N 30°23' W 091°13'0 0.0
2015-May-03 02:33N 30°23' W 091°13'3 2.1
2015-May-03 01:21N 30°21' W 091°12'2 1.5
2015-May-03 00:03N 30°19' W 091°11'2 4.5
2015-May-02 23:33N 30°18' W 091°13'6 0.2
2015-May-01 12:16N 30°14' W 091°08'4 6.0
2015-May-01 11:33N 30°17' W 091°12'4 4.1
2015-May-01 10:33N 30°20' W 091°08'5 5.5
2015-May-01 09:33N 30°23' W 091°13'8 7.7
2015-May-01 08:33N 30°31' W 091°13'4 4.2
2015-May-01 07:33N 30°34' W 091°17'7 6.8
2015-May-01 06:33N 30°40' W 091°20'  

Dump ship's entire track history